Terminal Aerodrome Forecast
Issued by NWS

Home | Current Version | Previous Version | Text Only | Print | Product List | Glossary On
Versions: 1 2 3 4 5 6 7 8 9 10 11 12 13 14 15 16 17 18 19 20 21 22 23 24
859
FTUS41 KILN 230351 AAC
TAFLCK
TAF AMD
KLCK 230351Z 2304/2324 17010G20KT 6SM -SHRA VCTS SCT020 OVC040CB
      TEMPO 2304/2305 4SM -TSRA BR OVC020CB
     FM230600 24010G16KT P6SM SCT080
     FM231100 22012G22KT P6SM VCSH BKN050
     FM231400 22016G28KT P6SM VCSH OVC022
     FM231800 25018G28KT P6SM VCSH OVC022=

USA.gov is the U.S. government's official web portal to all federal, state and local government web resources and services.